Time;durP1;ratioP1;P1;durP2;ratioP2;P2;SDS_P1;SDS_P2;PMS_P1;PMS_P2;Temp;Humidity;BMP_temperature;BMP_pressure;BME280_temperature;BME280_humidity;BME280_pressure;Samples;Min_cycle;Max_cycle;Signal;HPM_P1;HPM_P2
2022/08/12 00:42:53;;;;;;;6.80;3.60;;;;;;;20.45;46.69;101677.53;4976830;28;20046;-78
2022/08/12 00:45:19;;;;;;;7.47;4.10;;;;;;;20.42;46.87;101686.72;4972052;28;20035;-79
2022/08/12 00:47:45;;;;;;;6.60;4.32;;;;;;;20.39;46.82;101674.31;4988621;28;20456;-79
2022/08/12 00:50:18;;;;;;;5.82;3.97;;;;;;;20.30;47.16;101683.16;4977795;28;20034;-78
2022/08/12 00:52:46;;;;;;;8.38;3.90;;;;;;;20.35;47.25;101683.63;4978403;28;20035;-79
2022/08/12 00:55:12;;;;;;;6.32;4.18;;;;;;;20.26;47.20;101684.38;4981468;28;20085;-79
2022/08/12 00:57:46;;;;;;;4.38;3.53;;;;;;;20.32;46.97;101683.91;4979060;28;20027;-79
2022/08/12 01:00:23;;;;;;;6.32;4.05;;;;;;;20.27;46.36;101677.97;4981704;28;20050;-79
2022/08/12 01:02:54;;;;;;;5.75;4.22;;;;;;;20.17;46.78;101676.13;4981130;28;20186;-79
2022/08/12 01:13:46;;;;;;;5.30;3.90;;;;;;;20.22;47.00;101682.88;4985803;28;20048;-79
2022/08/12 01:16:15;;;;;;;4.78;3.92;;;;;;;20.11;46.68;101677.47;4992346;28;20120;-79
2022/08/12 01:18:42;;;;;;;6.05;4.07;;;;;;;20.05;46.89;101676.09;4997913;28;20121;-79
2022/08/12 01:21:25;;;;;;;6.60;3.78;;;;;;;20.05;46.45;101680.63;4994606;28;20023;-79
2022/08/12 01:24:09;;;;;;;;;;;;;;;20.11;45.24;101686.44;4984893;28;20030;-79
2022/08/12 01:26:40;;;;;;;6.28;3.65;;;;;;;19.97;46.91;101683.06;4988652;28;20382;-79
2022/08/12 01:29:06;;;;;;;5.03;3.85;;;;;;;19.89;47.36;101680.97;4986899;28;20034;-79
2022/08/12 01:31:35;;;;;;;4.85;4.07;;;;;;;19.84;47.26;101684.00;4982636;28;20042;-79
2022/08/12 01:34:11;;;;;;;5.68;3.65;;;;;;;19.86;47.39;101686.63;4983874;28;21527;-79
2022/08/12 01:36:39;;;;;;;4.47;3.70;;;;;;;19.82;49.01;101679.72;4996667;28;20026;-79
2022/08/12 01:39:06;;;;;;;5.32;3.67;;;;;;;19.69;49.30;101687.00;4996268;28;20022;-79
2022/08/12 01:41:35;;;;;;;6.35;4.13;;;;;;;19.63;49.13;101686.50;4985158;28;20042;-79
2022/08/12 01:44:01;;;;;;;6.07;3.75;;;;;;;19.59;49.46;101678.72;4984226;28;20400;-79
2022/08/12 01:46:48;;;;;;;5.68;4.20;;;;;;;19.57;48.96;101684.25;4980820;28;20018;-79
2022/08/12 01:49:32;;;;;;;7.47;4.28;;;;;;;19.57;49.09;101680.69;4997465;28;20053;-79
2022/08/12 01:52:04;;;;;;;5.10;3.78;;;;;;;19.50;50.49;101677.59;4989871;28;20026;-79
2022/08/12 01:54:38;;;;;;;4.03;3.63;;;;;;;19.48;50.04;101684.06;4986696;28;20023;-79
2022/08/12 01:57:14;;;;;;;5.75;3.85;;;;;;;19.46;50.10;101673.41;4982428;28;20034;-79
2022/08/12 01:59:49;;;;;;;6.57;3.80;;;;;;;19.46;49.97;101692.28;4989896;28;20030;-79
2022/08/12 02:02:25;;;;;;;4.45;3.53;;;;;;;19.39;50.20;101672.97;4981424;28;20384;-79
2022/08/12 02:11:17;;;;;;;;;;;;;;;19.41;48.35;101671.03;4991447;28;20050;-79
2022/08/12 02:13:56;;;;;;;5.15;3.50;;;;;;;19.22;50.59;101670.69;4977113;28;19922;-79
2022/08/12 02:16:44;;;;;;;4.32;3.55;;;;;;;19.18;50.26;101663.78;4979219;28;20031;-79
2022/08/12 02:19:57;;;;;;;5.75;3.90;;;;;;;19.19;49.79;101667.34;4976169;28;20106;-79
2022/08/12 02:22:28;;;;;;;6.78;3.53;;;;;;;19.10;51.43;101671.59;4986867;28;20578;-79
2022/08/12 02:25:06;;;;;;;4.18;3.78;;;;;;;19.05;50.75;101671.06;4983448;28;20045;-79
2022/08/12 02:27:41;;;;;;;3.80;3.35;;;;;;;19.04;50.37;101666.66;4985036;28;20030;-79
2022/08/12 02:30:10;;;;;;;4.85;3.92;;;;;;;18.98;51.01;101662.59;4981432;28;20030;-79
2022/08/12 02:32:41;;;;;;;5.57;3.78;;;;;;;19.01;50.54;101664.16;4975224;28;20081;-79
2022/08/12 02:35:13;;;;;;;4.43;3.60;;;;;;;18.96;50.50;101667.22;4978502;28;20057;-79
2022/08/12 02:37:40;;;;;;;5.70;3.77;;;;;;;18.94;50.56;101661.09;4991553;28;20030;-79
2022/08/12 02:40:08;;;;;;;4.32;3.33;;;;;;;18.90;50.93;101654.19;4990635;28;20029;-79
2022/08/12 02:42:34;;;;;;;6.97;4.13;;;;;;;18.88;50.85;101662.38;4988211;28;20018;-79
2022/08/12 02:45:05;;;;;;;5.82;3.85;;;;;;;18.86;51.66;101658.94;4977041;28;20034;-79
2022/08/12 02:47:36;;;;;;;6.00;3.90;;;;;;;18.85;51.58;101654.53;4975993;28;20105;-78
2022/08/12 02:50:03;;;;;;;4.15;3.75;;;;;;;18.85;51.55;101665.31;4987923;28;20025;-78
2022/08/12 02:52:31;;;;;;;5.75;3.92;;;;;;;18.82;51.61;101657.44;4976235;28;20030;-78
2022/08/12 02:55:04;;;;;;;4.70;4.00;;;;;;;18.77;51.84;101669.50;4977469;28;20609;-79
2022/08/12 02:57:30;;;;;;;4.43;3.90;;;;;;;18.76;52.66;101665.97;4984596;28;20027;-78
2022/08/12 02:59:57;;;;;;;5.50;3.63;;;;;;;18.67;51.87;101666.59;4979879;28;20222;-79
2022/08/12 03:02:28;;;;;;;4.22;3.83;;;;;;;18.59;51.82;101658.19;4982490;28;20185;-80
2022/08/12 03:04:57;;;;;;;6.07;3.85;;;;;;;18.63;51.67;101665.09;4985106;28;20035;-79
2022/08/12 03:07:22;;;;;;;4.63;3.80;;;;;;;18.57;52.50;101663.72;5001353;28;20037;-79
2022/08/12 03:09:56;;;;;;;7.95;4.15;;;;;;;18.58;51.94;101665.41;4980651;28;20022;-78
2022/08/12 03:12:23;;;;;;;4.97;4.40;;;;;;;18.49;52.28;101654.44;4983089;28;20492;-78
2022/08/12 03:14:50;;;;;;;4.68;3.97;;;;;;;18.38;52.57;101656.06;4988306;28;20037;-78
2022/08/12 03:17:33;;;;;;;7.45;3.97;;;;;;;18.36;52.11;101649.06;4978041;28;20030;-78
2022/08/12 03:19:59;;;;;;;6.97;3.85;;;;;;;18.31;53.00;101649.41;4977939;28;20030;-78
2022/08/12 03:22:25;;;;;;;6.93;4.20;;;;;;;18.29;52.85;101650.47;4980585;28;20132;-79
2022/08/12 03:24:51;;;;;;;5.38;3.90;;;;;;;18.24;52.90;101648.09;4987929;28;20037;-78
2022/08/12 03:27:16;;;;;;;5.20;4.00;;;;;;;18.33;53.13;101655.53;4983315;28;20034;-79
2022/08/12 03:29:46;;;;;;;6.00;4.38;;;;;;;18.30;53.21;101647.66;4981471;28;20023;-78
2022/08/12 03:32:13;;;;;;;7.47;4.32;;;;;;;18.32;53.29;101648.41;4983923;28;20031;-79
2022/08/12 03:34:40;;;;;;;5.63;3.85;;;;;;;18.26;53.33;101651.53;4973457;28;20117;-78
2022/08/12 03:37:10;;;;;;;4.47;3.83;;;;;;;18.24;53.29;101650.78;4986586;28;20033;-78
2022/08/12 03:42:21;;;;;;;6.13;4.30;;;;;;;18.17;53.36;101644.09;4977605;28;20054;-78
2022/08/12 04:01:56;;;;;;;8.10;4.93;;;;;;;17.86;54.86;101648.94;4987438;28;20577;-80
2022/08/12 04:04:24;;;;;;;6.70;4.43;;;;;;;17.84;54.97;101656.22;4985779;28;20069;-79
2022/08/12 04:06:49;;;;;;;5.15;4.63;;;;;;;17.88;55.28;101660.44;4980005;28;20207;-80
2022/08/12 04:09:19;;;;;;;6.38;4.13;;;;;;;17.87;54.75;101655.16;4992541;28;20090;-79
2022/08/12 04:14:31;;;;;;;4.43;3.83;;;;;;;17.82;55.51;101655.50;5002676;28;20045;-79
2022/08/12 04:16:57;;;;;;;4.80;4.30;;;;;;;17.85;55.43;101662.50;4994556;28;20030;-79
2022/08/12 04:19:24;;;;;;;5.60;4.10;;;;;;;17.83;55.62;101659.03;5001208;28;20086;-79
2022/08/12 04:21:49;;;;;;;6.50;4.60;;;;;;;17.81;55.50;101653.78;5004407;28;20137;-80
2022/08/12 04:24:17;;;;;;;4.93;3.90;;;;;;;17.78;55.70;101653.97;4999018;28;20441;-80
2022/08/12 04:26:42;;;;;;;7.15;4.40;;;;;;;17.77;55.57;101651.41;4986779;28;20061;-79
2022/08/12 04:29:09;;;;;;;7.80;4.45;;;;;;;17.75;55.64;101654.16;5000325;28;20495;-79
2022/08/12 04:31:38;;;;;;;6.35;4.50;;;;;;;17.77;55.84;101651.41;4990363;28;20144;-80
2022/08/12 04:34:06;;;;;;;5.28;4.60;;;;;;;17.77;56.14;101659.47;4992046;28;20030;-77
2022/08/12 04:36:31;;;;;;;5.13;4.55;;;;;;;17.78;55.90;101661.19;4990456;28;20038;-77
2022/08/12 04:38:58;;;;;;;7.25;4.47;;;;;;;17.81;56.30;101663.69;4993909;28;20033;-79
2022/08/12 04:41:24;;;;;;;4.82;4.07;;;;;;;17.82;56.20;101663.56;4980171;28;20034;-79
2022/08/12 04:43:50;;;;;;;5.50;4.53;;;;;;;17.81;56.17;101669.94;4983442;28;20033;-78
2022/08/12 04:46:15;;;;;;;5.72;5.05;;;;;;;17.77;56.58;101657.63;4985020;28;20034;-78
2022/08/12 04:48:40;;;;;;;5.80;5.15;;;;;;;17.71;56.44;101647.25;4998262;28;20105;-78
2022/08/12 04:51:06;;;;;;;5.28;4.70;;;;;;;17.73;56.32;101656.09;4989860;28;20430;-79
2022/08/12 04:53:32;;;;;;;5.82;4.50;;;;;;;17.75;57.93;101659.56;4981479;28;20468;-79
2022/08/12 04:55:59;;;;;;;5.22;4.60;;;;;;;17.78;58.07;101661.19;4981604;28;20037;-78
2022/08/12 04:58:24;;;;;;;5.15;4.32;;;;;;;17.79;58.10;101662.91;4986229;28;20061;-78
2022/08/12 05:00:50;;;;;;;5.78;4.78;;;;;;;17.74;58.63;101665.03;4978637;28;20066;-78
2022/08/12 05:03:15;;;;;;;7.95;5.03;;;;;;;17.79;58.37;101660.22;4988094;28;20533;-78
2022/08/12 05:05:42;;;;;;;5.07;4.57;;;;;;;17.80;58.74;101665.47;4994029;28;20038;-78
2022/08/12 05:08:16;;;;;;;5.95;4.50;;;;;;;17.81;58.29;101661.84;4988078;28;20084;-78
2022/08/12 05:10:42;;;;;;;7.13;4.90;;;;;;;17.77;57.81;101660.34;4983201;28;20027;-79
2022/08/12 05:13:24;;;;;;;9.73;5.22;;;;;;;17.86;57.32;101664.22;4978097;28;20058;-79
2022/08/12 05:15:49;;;;;;;6.00;5.22;;;;;;;17.91;57.62;101664.75;4981414;28;20106;-78
2022/08/12 05:18:14;;;;;;;8.40;5.43;;;;;;;17.89;57.48;101662.19;4990823;28;20042;-78
2022/08/12 05:20:43;;;;;;;7.38;5.35;;;;;;;17.95;57.44;101662.72;4984901;28;20026;-78
2022/08/12 05:23:11;;;;;;;8.63;5.38;;;;;;;17.98;57.49;101659.84;4987804;28;20039;-79
2022/08/12 05:25:37;;;;;;;6.55;5.45;;;;;;;17.99;57.23;101664.25;4977876;28;20031;-78
2022/08/12 05:28:04;;;;;;;6.97;5.72;;;;;;;18.05;57.56;101663.81;4977621;28;20031;-79
2022/08/12 05:30:32;;;;;;;8.05;5.68;;;;;;;18.11;57.17;101664.25;4983928;28;20034;-79
2022/08/12 05:32:58;;;;;;;6.38;5.25;;;;;;;18.21;57.39;101661.78;4986513;28;20030;-79
2022/08/12 05:35:24;;;;;;;6.15;5.15;;;;;;;18.38;56.96;101661.44;4974154;28;20054;-78
2022/08/12 05:38:54;;;;;;;11.57;5.88;;;;;;;18.46;56.66;101655.50;4980948;28;20034;-78
2022/08/12 05:40:35;;;;;;;7.47;5.97;;;;;;;18.66;56.32;101671.13;4991048;28;20034;-78
2022/08/12 05:43:00;;;;;;;7.97;5.70;;;;;;;18.74;55.82;101662.53;4981879;28;20424;-79
2022/08/12 05:45:25;;;;;;;6.97;5.68;;;;;;;18.93;56.26;101672.81;4970673;28;20098;-78
2022/08/12 05:47:51;;;;;;;9.32;5.97;;;;;;;19.12;54.77;101678.59;4971569;28;20076;-78
2022/08/12 05:50:16;;;;;;;6.57;5.75;;;;;;;19.27;54.75;101683.84;4997623;28;20106;-78
2022/08/12 05:52:42;;;;;;;6.38;5.47;;;;;;;19.50;54.08;101680.28;4982310;28;20023;-79
2022/08/12 05:55:09;;;;;;;8.52;5.88;;;;;;;19.61;54.09;101682.22;4982565;28;20039;-79
2022/08/12 05:57:34;;;;;;;6.40;5.80;;;;;;;19.76;53.61;101680.19;4977063;28;20030;-79
2022/08/12 05:59:59;;;;;;;9.32;6.20;;;;;;;19.91;52.87;101679.00;4984596;28;20034;-79
2022/08/12 06:02:25;;;;;;;6.95;6.22;;;;;;;20.10;52.35;101687.41;4983870;28;20482;-79
2022/08/12 06:04:50;;;;;;;9.70;6.75;;;;;;;20.32;52.07;101683.03;4984025;28;20058;-78
2022/08/12 06:07:15;;;;;;;7.65;6.18;;;;;;;20.39;51.45;101684.25;4984964;28;20026;-78
2022/08/12 06:09:41;;;;;;;7.93;6.88;;;;;;;20.57;51.38;101696.38;4982720;28;20026;-79
2022/08/12 06:12:06;;;;;;;7.50;6.00;;;;;;;20.71;50.88;101691.69;4980811;28;20173;-78
2022/08/12 06:14:35;;;;;;;8.27;6.60;;;;;;;20.92;50.40;101697.22;4988339;28;20045;-78
2022/08/12 06:17:00;;;;;;;8.90;6.35;;;;;;;21.07;50.28;101685.16;4980382;28;20046;-79
2022/08/12 06:19:28;;;;;;;7.13;5.97;;;;;;;21.24;49.74;101683.78;4980268;28;20107;-78
2022/08/12 06:21:54;;;;;;;12.35;6.63;;;;;;;21.28;49.72;101674.41;4976550;28;20058;-79
2022/08/12 06:24:23;;;;;;;10.35;7.00;;;;;;;21.51;49.21;101684.19;4983309;28;20336;-78
2022/08/12 06:26:49;;;;;;;9.43;7.47;;;;;;;21.69;49.00;101687.19;4974460;28;20108;-78
2022/08/12 06:29:18;;;;;;;10.23;7.15;;;;;;;21.80;49.05;101680.88;4974637;28;20055;-78
2022/08/12 06:31:44;;;;;;;9.60;7.53;;;;;;;22.03;47.67;101681.59;4982260;28;20361;-78
2022/08/12 06:34:13;;;;;;;10.88;6.78;;;;;;;22.22;47.35;101684.50;4985056;28;20035;-79
2022/08/12 06:36:39;;;;;;;11.15;7.60;;;;;;;22.25;46.86;101673.38;4980470;28;20048;-78
2022/08/12 06:39:04;;;;;;;9.88;7.25;;;;;;;22.30;46.73;101676.56;4984563;28;20027;-79
2022/08/12 06:44:19;;;;;;;11.57;7.50;;;;;;;22.55;46.17;101682.53;4977270;28;20042;-78
2022/08/12 06:46:45;;;;;;;14.93;7.47;;;;;;;22.72;46.20;101668.31;4983525;28;20026;-79
2022/08/12 06:49:12;;;;;;;11.27;7.68;;;;;;;22.95;45.53;101674.44;4978942;28;20476;-78
2022/08/12 06:51:37;;;;;;;11.32;7.30;;;;;;;23.14;45.42;101670.06;4985421;28;20549;-78
2022/08/12 06:54:02;;;;;;;9.98;8.00;;;;;;;23.31;44.39;101662.06;4977713;28;20034;-79
2022/08/12 06:56:29;;;;;;;11.18;7.38;;;;;;;23.51;44.79;101659.38;4982954;28;20045;-78
2022/08/12 06:58:56;;;;;;;8.40;7.43;;;;;;;23.71;44.27;101663.00;4977082;28;20068;-78
2022/08/12 07:01:22;;;;;;;9.52;7.38;;;;;;;23.82;43.58;101671.84;4978802;28;20062;-78
2022/08/12 07:03:47;;;;;;;9.88;7.10;;;;;;;24.01;42.46;101667.41;4986554;28;20081;-79
2022/08/12 07:06:13;;;;;;;11.20;7.75;;;;;;;24.17;41.90;101680.41;4981974;28;20380;-78
2022/08/12 07:08:39;;;;;;;12.68;7.95;;;;;;;24.40;41.47;101670.06;4983572;28;20034;-79
2022/08/12 07:11:08;;;;;;;10.90;6.90;;;;;;;24.71;41.52;101673.41;4988410;28;20484;-78
2022/08/12 07:13:42;;;;;;;9.20;7.53;;;;;;;25.00;40.24;101674.09;4982568;28;20092;-79
2022/08/12 07:16:10;;;;;;;12.05;7.63;;;;;;;25.30;40.83;101670.22;4982666;28;20449;-78
2022/08/12 07:18:36;;;;;;;12.40;7.53;;;;;;;25.51;39.12;101669.06;4971501;28;20031;-78
2022/08/12 07:21:03;;;;;;;9.75;7.15;;;;;;;25.76;38.88;101671.00;4975777;28;20500;-78
2022/08/12 07:23:34;;;;;;;17.30;7.80;;;;;;;26.07;38.01;101673.31;4984496;28;20030;-78
2022/08/12 07:26:03;;;;;;;10.43;7.53;;;;;;;26.25;36.87;101684.16;4977406;28;20027;-79
2022/08/12 07:28:32;;;;;;;12.45;7.53;;;;;;;26.52;36.23;101685.91;4974229;28;20061;-79
2022/08/12 07:30:58;;;;;;;9.55;7.70;;;;;;;26.88;35.27;101681.16;4975572;28;20113;-79
2022/08/12 07:33:26;;;;;;;11.43;7.82;;;;;;;27.20;34.64;101683.16;4978476;28;20114;-78
2022/08/12 07:35:53;;;;;;;9.90;7.78;;;;;;;27.52;34.03;101689.75;4972919;28;20448;-79
2022/08/12 07:38:25;;;;;;;12.32;7.38;;;;;;;27.83;34.43;101683.63;4974168;28;20022;-79
2022/08/12 07:41:15;;;;;;;8.57;6.47;;;;;;;28.34;34.33;101687.84;4973536;28;20499;-79
2022/08/12 07:43:44;;;;;;;12.80;7.75;;;;;;;28.58;32.86;101688.88;4977038;28;20388;-78
2022/08/12 07:46:13;;;;;;;9.32;6.95;;;;;;;28.86;32.63;101692.03;4977859;28;20030;-79
2022/08/12 07:49:00;;;;;;;7.20;6.47;;;;;;;29.46;32.86;101688.63;4985704;28;20487;-78
2022/08/12 07:51:27;;;;;;;9.60;6.97;;;;;;;29.95;30.27;101691.03;4983056;28;20438;-79
2022/08/12 07:53:55;;;;;;;10.25;6.53;;;;;;;30.10;30.15;101685.56;4984801;28;20046;-79
2022/08/12 07:56:20;;;;;;;7.43;6.55;;;;;;;30.19;30.02;101684.50;4993634;28;20022;-79
2022/08/12 07:58:45;;;;;;;8.23;6.03;;;;;;;30.65;31.41;101690.72;5001002;28;20050;-79
2022/08/12 08:01:18;;;;;;;8.38;5.70;;;;;;;30.97;29.65;101694.09;5006506;28;20010;-79
2022/08/12 08:06:31;;;;;;;7.55;5.07;;;;;;;31.12;27.89;101686.69;4993401;28;20060;-78
2022/08/12 08:08:58;;;;;;;6.90;4.95;;;;;;;31.44;27.79;101696.41;4981874;28;20034;-79
2022/08/12 08:14:09;;;;;;;8.38;5.10;;;;;;;32.17;25.88;101699.88;4989338;28;20045;-78
2022/08/12 08:16:36;;;;;;;7.75;4.90;;;;;;;32.34;25.37;101691.31;4985920;28;20672;-78
2022/08/12 08:19:02;;;;;;;5.57;4.82;;;;;;;32.72;25.22;101694.53;4983613;28;20034;-78
2022/08/12 08:21:28;;;;;;;9.52;4.22;;;;;;;33.11;24.54;101699.44;4990762;28;20038;-79
2022/08/12 08:26:37;;;;;;;7.57;4.82;;;;;;;34.01;25.18;101702.84;4984383;28;20052;-80
2022/08/12 08:29:03;;;;;;;6.97;4.05;;;;;;;34.60;23.39;101707.50;4978465;28;20458;-80
2022/08/12 08:31:28;;;;;;;5.20;3.97;;;;;;;34.93;22.08;101699.09;4978444;28;20023;-79
2022/08/12 08:33:53;;;;;;;6.60;3.90;;;;;;;35.11;22.22;101695.63;4978010;28;20399;-79
2022/08/12 08:36:20;;;;;;;6.70;4.13;;;;;;;35.37;22.40;101710.44;4978512;28;20300;-79
2022/08/12 08:38:45;;;;;;;4.28;3.80;;;;;;;35.67;21.89;101707.91;4974006;28;20130;-79
2022/08/12 08:43:57;;;;;;;4.97;3.80;;;;;;;36.35;20.34;101690.53;4985346;28;20598;-77
2022/08/12 08:46:23;;;;;;;4.82;3.50;;;;;;;36.54;20.78;101694.22;4971797;28;20033;-79
2022/08/12 08:48:48;;;;;;;6.55;3.78;;;;;;;36.73;20.21;101697.81;4972031;28;20035;-80
2022/08/12 08:51:13;;;;;;;5.90;3.90;;;;;;;37.11;20.57;101698.44;4976056;28;20030;-80
2022/08/12 08:53:40;;;;;;;9.05;3.70;;;;;;;37.68;18.80;101709.19;4979727;28;20030;-79
2022/08/12 08:56:09;;;;;;;5.15;3.25;;;;;;;37.95;19.76;101703.22;4977247;28;20042;-79
2022/08/12 08:58:36;;;;;;;4.72;3.40;;;;;;;38.20;18.81;101698.28;4987052;28;20030;-79
2022/08/12 09:01:03;;;;;;;8.02;3.67;;;;;;;38.21;18.81;101700.00;4973192;28;20031;-80
2022/08/12 09:03:29;;;;;;;8.15;3.85;;;;;;;38.88;20.33;101699.63;4983789;28;20042;-79
2022/08/12 09:05:54;;;;;;;7.65;3.67;;;;;;;39.29;18.01;101700.44;4983802;28;20132;-79
2022/08/12 09:08:21;;;;;;;5.30;3.60;;;;;;;39.30;17.97;101704.94;4975783;28;20053;-79
2022/08/12 09:10:47;;;;;;;5.43;3.47;;;;;;;39.64;16.96;101700.28;4973573;28;20038;-79
2022/08/12 09:13:28;;;;;;;4.22;3.38;;;;;;;39.71;16.35;101700.97;4979717;28;20080;-78
2022/08/12 09:15:53;;;;;;;7.15;3.33;;;;;;;39.77;16.89;101707.50;4980239;28;20668;-79
2022/08/12 09:18:19;;;;;;;8.30;3.45;;;;;;;40.13;16.79;101695.00;4975280;28;20029;-78
2022/08/12 09:20:49;;;;;;;4.97;3.30;;;;;;;40.20;16.20;101701.25;4976805;28;20049;-78
2022/08/12 09:23:15;;;;;;;7.55;3.10;;;;;;;40.22;16.50;101703.81;4979131;28;20034;-79
2022/08/12 09:25:40;;;;;;;6.80;3.30;;;;;;;40.59;16.25;101698.50;4979789;28;20066;-78
2022/08/12 09:28:09;;;;;;;5.55;3.10;;;;;;;40.54;16.01;101684.50;4982522;28;20026;-80
2022/08/12 09:30:36;;;;;;;5.13;3.13;;;;;;;40.69;16.48;101693.06;4984659;28;20085;-79
2022/08/12 09:33:02;;;;;;;4.05;3.25;;;;;;;40.72;15.61;101694.47;4983115;28;20093;-79
2022/08/12 09:35:47;;;;;;;5.32;3.40;;;;;;;41.20;16.09;101704.06;4978753;28;20475;-78
2022/08/12 09:38:15;;;;;;;5.88;3.03;;;;;;;41.68;15.17;101697.59;4977129;28;20027;-79
2022/08/12 09:40:40;;;;;;;6.90;3.10;;;;;;;41.79;13.95;101701.31;4975675;28;20042;-80
2022/08/12 09:45:50;;;;;;;7.90;5.85;;;;;;;42.50;14.41;101687.03;4978034;28;20041;-80
2022/08/12 09:48:16;;;;;;;8.10;4.10;;;;;;;42.47;13.90;101681.97;4976392;28;20320;-79
2022/08/12 09:50:43;;;;;;;4.90;3.40;;;;;;;42.16;13.82;101689.31;4977525;28;20065;-80
2022/08/12 09:53:23;;;;;;;3.33;2.80;;;;;;;42.03;14.70;101696.22;4980726;28;20034;-79
2022/08/12 09:55:53;;;;;;;4.57;3.13;;;;;;;42.04;14.65;101690.34;4983840;28;20062;-80
2022/08/12 09:58:27;;;;;;;5.28;3.00;;;;;;;42.36;14.63;101686.69;4985658;28;20387;-79
2022/08/12 10:00:55;;;;;;;4.20;2.90;;;;;;;42.92;13.24;101678.56;4982617;28;20026;-79
2022/08/12 10:03:25;;;;;;;4.80;2.60;;;;;;;43.22;12.53;101682.59;4981796;28;20079;-77
2022/08/12 10:05:51;;;;;;;6.68;2.80;;;;;;;42.82;13.16;101669.31;4972941;28;20480;-78
2022/08/12 10:08:17;;;;;;;5.70;2.70;;;;;;;42.78;12.94;101672.66;4981441;28;20031;-79
2022/08/12 10:13:41;;;;;;;4.80;2.80;;;;;;;42.22;13.33;101668.66;4976707;28;20158;-80
2022/08/12 10:16:07;;;;;;;5.13;3.08;;;;;;;42.35;12.75;101665.44;4980628;28;20039;-79
2022/08/12 10:18:36;;;;;;;7.43;3.13;;;;;;;42.65;13.58;101666.72;4981929;28;20029;-80
2022/08/12 10:21:20;;;;;;;3.88;2.85;;;;;;;42.90;13.44;101664.00;4975750;28;20030;-79
2022/08/12 10:23:47;;;;;;;5.13;3.50;;;;;;;42.73;13.46;101657.81;4979538;28;20031;-79
2022/08/12 10:31:45;;;;;;;5.05;2.90;;;;;;;43.16;12.50;101652.91;4979514;28;20081;-78
2022/08/12 10:34:14;;;;;;;4.32;2.58;;;;;;;43.43;12.07;101644.25;4977926;28;20480;-83
2022/08/12 10:36:41;;;;;;;3.58;2.80;;;;;;;42.88;12.49;101645.78;4995836;28;20084;-77
2022/08/12 10:39:08;;;;;;;5.40;2.83;;;;;;;42.46;12.50;101646.72;4985325;28;20033;-76
2022/08/12 10:44:18;;;;;;;4.30;3.17;;;;;;;43.07;11.81;101640.56;4982984;28;20092;-81
2022/08/12 10:46:46;;;;;;;4.32;2.60;;;;;;;43.45;11.89;101633.63;4985119;28;20400;-79
2022/08/12 10:49:11;;;;;;;4.03;2.58;;;;;;;43.95;11.88;101634.75;4987568;28;20023;-78
2022/08/12 10:51:40;;;;;;;2.80;2.60;;;;;;;44.13;11.49;101625.72;4986834;28;20034;-81
2022/08/12 10:54:05;;;;;;;4.65;2.50;;;;;;;44.70;11.32;101626.41;4972105;28;20019;-76
2022/08/12 10:56:31;;;;;;;4.97;2.70;;;;;;;44.90;10.96;101622.63;4979378;28;20038;-79
2022/08/12 10:58:57;;;;;;;3.80;2.50;;;;;;;45.00;10.84;101625.41;4978789;28;20222;-77
2022/08/12 11:01:22;;;;;;;5.05;3.17;;;;;;;45.10;10.66;101621.69;4976475;28;20069;-77
2022/08/12 11:03:48;;;;;;;3.58;2.72;;;;;;;45.50;10.52;101617.75;4975765;28;20100;-78
2022/08/12 11:06:14;;;;;;;3.58;2.72;;;;;;;44.65;10.75;101613.25;4979784;28;20074;-77
2022/08/12 11:08:40;;;;;;;2.90;2.60;;;;;;;45.10;11.45;101614.09;4995541;28;20119;-79
2022/08/12 11:11:07;;;;;;;3.28;2.67;;;;;;;45.66;10.32;101608.06;4987301;28;20030;-78
2022/08/12 11:13:36;;;;;;;3.67;2.67;;;;;;;46.14;10.48;101604.47;4994142;28;20033;-78
2022/08/12 11:16:05;;;;;;;5.82;2.60;;;;;;;46.37;9.98;101609.28;4979620;28;20045;-78
2022/08/12 11:18:30;;;;;;;3.88;2.50;;;;;;;46.69;10.05;101607.75;4981176;28;20041;-77
2022/08/12 11:20:58;;;;;;;3.78;2.88;;;;;;;46.87;9.99;101595.69;4979603;28;20437;-82
2022/08/12 11:23:24;;;;;;;5.70;3.10;;;;;;;46.69;9.51;101599.31;4987942;28;20117;-83
2022/08/12 11:25:50;;;;;;;4.82;2.55;;;;;;;46.11;9.64;101607.88;5005941;28;20040;-92
2022/08/12 11:28:16;;;;;;;4.32;2.75;;;;;;;44.96;10.22;101599.84;4976884;28;20095;-90
2022/08/12 11:30:42;;;;;;;2.92;2.70;;;;;;;45.00;10.69;101591.69;4982763;28;20073;-91
2022/08/12 11:33:08;;;;;;;3.88;3.20;;;;;;;45.15;10.60;101587.94;4985296;28;20046;-92
2022/08/12 11:35:35;;;;;;;4.82;2.97;;;;;;;45.79;11.08;101589.66;4986537;28;20034;-90
2022/08/12 11:38:01;;;;;;;3.50;2.53;;;;;;;46.13;10.53;101578.31;4979382;28;20030;-91
2022/08/12 11:40:27;;;;;;;3.55;2.97;;;;;;;46.42;11.04;101580.25;4987355;28;20108;-92
2022/08/12 11:42:52;;;;;;;4.03;2.72;;;;;;;46.67;9.61;101579.06;4976141;28;20472;-93
2022/08/12 11:45:18;;;;;;;4.38;2.80;;;;;;;46.86;10.50;101570.59;4986095;28;20034;-90
2022/08/12 11:47:44;;;;;;;5.90;2.60;;;;;;;46.74;10.30;101570.22;5002672;28;20037;-89
2022/08/12 11:50:10;;;;;;;4.15;3.03;;;;;;;46.88;10.28;101574.81;4987768;28;20085;-87
2022/08/12 11:52:35;;;;;;;4.07;2.63;;;;;;;47.12;10.62;101557.84;4990296;28;20096;-89
2022/08/12 11:55:00;;;;;;;3.92;3.17;;;;;;;47.67;9.07;101571.31;4984721;28;20039;-93
2022/08/12 11:57:30;;;;;;;2.90;2.50;;;;;;;47.42;9.59;101564.94;4994652;28;20033;-91
2022/08/12 11:59:55;;;;;;;4.30;2.53;;;;;;;46.85;9.18;101558.50;4998385;28;20309;-93
2022/08/12 12:02:20;;;;;;;5.00;2.72;;;;;;;47.58;9.88;101556.22;4989022;28;20031;-92
2022/08/12 12:04:46;;;;;;;4.28;2.63;;;;;;;48.51;8.85;101548.41;5004152;28;20042;-90
2022/08/12 12:07:11;;;;;;;4.85;2.63;;;;;;;48.29;8.22;101554.00;4997247;28;20073;-93
2022/08/12 12:09:37;;;;;;;4.50;3.07;;;;;;;46.47;9.46;101556.81;4991946;28;20078;-93
2022/08/12 12:12:03;;;;;;;6.43;3.30;;;;;;;45.73;9.89;101548.63;4993716;28;20076;-93
2022/08/12 12:14:38;;;;;;;8.18;2.95;;;;;;;45.08;9.90;101556.53;4980517;28;20492;-91
2022/08/12 12:17:03;;;;;;;6.32;2.90;;;;;;;45.63;10.41;101546.78;4994305;28;20026;-93
2022/08/12 12:19:29;;;;;;;2.92;2.67;;;;;;;46.66;9.58;101554.88;4996638;28;20016;-95
2022/08/12 12:21:54;;;;;;;7.30;2.90;;;;;;;47.11;9.42;101556.13;4996525;28;20522;-91
2022/08/12 12:24:21;;;;;;;3.73;2.63;;;;;;;46.91;9.92;101551.66;4983322;28;20301;-95
2022/08/12 12:26:47;;;;;;;3.20;2.75;;;;;;;47.36;9.33;101549.25;4996507;28;20293;-96
2022/08/12 12:29:12;;;;;;;4.18;2.97;;;;;;;46.69;9.60;101543.81;4993973;28;20040;-94
2022/08/12 12:31:38;;;;;;;3.30;2.90;;;;;;;45.73;9.88;101548.63;4988938;28;20504;-96
2022/08/12 12:34:03;;;;;;;4.22;3.40;;;;;;;44.87;10.11;101541.78;4994959;28;20298;-92
2022/08/12 12:36:28;;;;;;;5.53;3.30;;;;;;;45.43;9.98;101542.19;4982930;28;20034;-95
2022/08/12 12:38:54;;;;;;;5.32;2.85;;;;;;;45.81;10.35;101516.25;4992621;28;20082;-95
2022/08/12 12:41:19;;;;;;;4.65;3.15;;;;;;;46.17;9.85;101522.28;5006049;28;20030;-91
2022/08/12 12:43:44;;;;;;;8.23;3.65;;;;;;;46.98;9.50;101517.47;4998342;28;20026;-93
2022/08/12 12:46:10;;;;;;;5.18;2.90;;;;;;;46.99;10.07;101523.94;4999381;28;20057;-93
2022/08/12 12:48:35;;;;;;;6.18;3.70;;;;;;;47.65;10.29;101512.31;4994555;28;20026;-93
2022/08/12 12:51:16;;;;;;;4.73;3.37;;;;;;;47.59;9.36;101515.59;4999926;28;20070;-95
2022/08/12 12:53:46;;;;;;;6.03;3.55;;;;;;;47.64;9.33;101518.28;5003827;28;20306;-95
2022/08/12 12:56:20;;;;;;;3.90;3.42;;;;;;;47.29;9.65;101489.59;5070759;23;20042;-96
2022/08/12 12:58:48;;;;;;;4.65;3.60;;;;;;;47.49;9.21;101490.38;4973557;28;20095;-96
2022/08/12 13:01:37;;;;;;;5.13;3.47;;;;;;;46.91;9.67;101491.66;4974050;28;20042;-95
2022/08/12 13:04:11;;;;;;;5.40;3.28;;;;;;;45.75;9.84;101470.44;4974437;28;20043;-96
2022/08/12 13:06:41;;;;;;;4.93;3.40;;;;;;;45.87;10.48;101499.03;5122743;23;20050;-95
2022/08/12 13:09:11;;;;;;;7.57;3.80;;;;;;;45.81;9.82;101483.34;5016076;28;20030;-96
2022/08/12 13:12:00;;;;;;;7.03;3.60;;;;;;;45.35;10.42;101497.84;5013421;28;20013;-96
2022/08/12 13:17:00;;;;;;;6.00;3.40;;;;;;;45.08;10.17;101489.13;5088473;23;20047;-96
2022/08/12 13:19:26;;;;;;;6.32;4.20;;;;;;;44.34;10.98;101491.84;4988437;28;20029;-96
2022/08/12 13:22:24;;;;;;;5.50;3.60;;;;;;;43.66;11.59;101478.31;4987685;28;20117;-96